createdAt,value
2023-02-08T00:01:08.077Z,16.63
2023-02-08T00:03:35.827Z,16.43
2023-02-08T00:06:03.350Z,14.20
2023-02-08T00:08:31.120Z,13.33
2023-02-08T00:10:58.829Z,15.10
2023-02-08T00:13:26.333Z,16.90
2023-02-08T00:15:55.330Z,16.87
2023-02-08T00:18:24.166Z,14.47
2023-02-08T00:20:53.294Z,14.63
2023-02-08T00:23:20.771Z,14.73
2023-02-08T00:25:48.340Z,15.43
2023-02-08T00:28:17.492Z,14.93
2023-02-08T00:30:45.502Z,18.27
2023-02-08T00:33:13.311Z,17.33
2023-02-08T00:35:42.454Z,17.30
2023-02-08T00:38:09.913Z,17.07
2023-02-08T00:40:37.520Z,16.30
2023-02-08T00:45:56.617Z,18.50
2023-02-08T00:48:25.906Z,16.93
2023-02-08T00:51:06.723Z,16.30
2023-02-08T00:53:37.076Z,15.07
2023-02-08T00:56:06.666Z,14.90
2023-02-08T00:58:34.919Z,15.83
2023-02-08T01:01:02.948Z,17.30
2023-02-08T01:03:34.665Z,14.10
2023-02-08T01:06:04.507Z,17.70
2023-02-08T01:08:33.592Z,20.20
2023-02-08T01:11:05.996Z,19.70
2023-02-08T01:13:33.460Z,19.30
2023-02-08T01:16:07.914Z,16.40
2023-02-08T01:18:35.381Z,16.27
2023-02-08T01:21:09.615Z,19.00
2023-02-08T01:23:37.516Z,17.03
2023-02-08T01:26:05.353Z,16.87
2023-02-08T01:28:33.756Z,18.80
2023-02-08T01:31:01.971Z,16.17
2023-02-08T01:33:29.517Z,17.97
2023-02-08T01:35:56.983Z,16.07
2023-02-08T01:38:25.838Z,16.53
2023-02-08T01:40:53.573Z,14.80
2023-02-08T01:43:24.798Z,18.10
2023-02-08T01:45:52.847Z,16.67
2023-02-08T01:48:24.827Z,17.97
2023-02-08T01:50:58.671Z,17.83
2023-02-08T01:53:29.957Z,17.60
2023-02-08T01:56:03.433Z,15.90
2023-02-08T01:58:34.048Z,15.43
2023-02-08T02:01:02.508Z,18.03
2023-02-08T02:03:30.189Z,17.10
2023-02-08T02:06:02.520Z,17.67
2023-02-08T02:08:33.545Z,15.40
2023-02-08T02:11:01.066Z,15.80
2023-02-08T02:13:29.149Z,14.60
2023-02-08T02:15:56.596Z,17.17
2023-02-08T02:18:26.140Z,16.57
2023-02-08T02:21:20.903Z,14.03
2023-02-08T02:24:26.741Z,17.37
2023-02-08T02:27:28.022Z,14.20
2023-02-08T02:30:27.731Z,16.63
2023-02-08T02:33:15.911Z,16.23
2023-02-08T02:35:49.148Z,15.10
2023-02-08T02:38:26.478Z,16.60
2023-02-08T02:41:01.930Z,16.33
2023-02-08T02:43:42.159Z,16.90
2023-02-08T02:46:20.404Z,14.27
2023-02-08T02:48:55.461Z,17.63
2023-02-08T02:51:28.866Z,18.43
2023-02-08T02:54:01.087Z,17.83
2023-02-08T02:56:33.007Z,15.30
2023-02-08T02:59:05.785Z,17.07
2023-02-08T03:01:33.771Z,16.37
2023-02-08T03:04:13.873Z,16.63
2023-02-08T03:07:00.267Z,17.40
2023-02-08T03:09:47.862Z,16.10
2023-02-08T03:12:30.726Z,15.07
2023-02-08T03:15:05.072Z,12.20
2023-02-08T03:17:44.827Z,15.00
2023-02-08T03:20:18.899Z,16.77
2023-02-08T03:22:55.353Z,15.93
2023-02-08T03:25:28.360Z,14.80
2023-02-08T03:28:04.924Z,14.23
2023-02-08T03:30:48.336Z,15.97
2023-02-08T03:33:21.194Z,17.27
2023-02-08T03:35:53.457Z,16.07
2023-02-08T03:38:26.401Z,16.10
2023-02-08T03:40:56.892Z,14.73
2023-02-08T03:43:29.818Z,13.70
2023-02-08T03:46:04.157Z,16.80
2023-02-08T03:48:34.174Z,16.83
2023-02-08T03:51:05.580Z,15.10
2023-02-08T03:53:38.194Z,14.67
2023-02-08T03:56:18.001Z,17.27
2023-02-08T03:58:49.990Z,17.20
2023-02-08T04:01:23.246Z,17.17
2023-02-08T04:03:54.072Z,15.40
2023-02-08T04:06:23.467Z,14.40
2023-02-08T04:08:51.424Z,16.37
2023-02-08T04:11:19.293Z,15.20
2023-02-08T04:13:47.183Z,14.30
2023-02-08T04:16:14.736Z,13.70
2023-02-08T04:18:42.178Z,15.30
2023-02-08T04:21:09.603Z,16.87
2023-02-08T04:23:38.395Z,16.30
2023-02-08T04:26:07.537Z,14.93
2023-02-08T04:28:35.366Z,16.27
2023-02-08T04:31:03.018Z,15.47
2023-02-08T04:33:30.516Z,13.73
2023-02-08T04:35:58.037Z,12.80
2023-02-08T04:38:25.697Z,14.87
2023-02-08T04:40:54.464Z,15.70
2023-02-08T04:43:21.917Z,17.43
2023-02-08T04:45:50.993Z,16.57
2023-02-08T04:48:18.707Z,15.73
2023-02-08T04:50:47.380Z,17.03
2023-02-08T04:53:15.195Z,14.90
2023-02-08T04:55:42.953Z,16.27
2023-02-08T04:58:11.777Z,14.87
2023-02-08T05:00:39.443Z,13.57
2023-02-08T05:03:07.163Z,16.50
2023-02-08T05:05:34.791Z,17.90
2023-02-08T05:08:02.313Z,17.57
2023-02-08T05:10:29.925Z,16.63
2023-02-08T05:12:57.517Z,13.90
2023-02-08T05:15:26.301Z,16.53
2023-02-08T05:17:53.904Z,16.53
2023-02-08T05:20:21.535Z,17.07
2023-02-08T05:22:49.161Z,18.90
2023-02-08T05:25:17.954Z,17.03
2023-02-08T05:27:45.501Z,16.40
2023-02-08T05:30:13.447Z,15.17
2023-02-08T05:32:42.246Z,16.97
2023-02-08T05:35:10.461Z,14.60
2023-02-08T05:37:38.129Z,15.37
2023-02-08T05:40:06.240Z,15.30
2023-02-08T05:42:33.715Z,15.50
2023-02-08T05:45:01.163Z,15.93
2023-02-08T05:47:28.622Z,17.50
2023-02-08T05:49:57.417Z,15.70
2023-02-08T05:52:24.899Z,18.97
2023-02-08T05:54:52.437Z,16.50
2023-02-08T05:57:19.939Z,15.47
2023-02-08T05:59:47.645Z,18.73
2023-02-08T06:02:15.286Z,16.13
2023-02-08T06:04:42.733Z,16.93
2023-02-08T06:07:11.515Z,22.20
2023-02-08T06:09:39.022Z,17.20
2023-02-08T06:12:07.136Z,18.13
2023-02-08T06:14:34.648Z,15.70
2023-02-08T06:17:02.090Z,20.40
2023-02-08T06:19:29.681Z,17.93
2023-02-08T06:21:57.194Z,18.03
2023-02-08T06:24:26.028Z,18.83
2023-02-08T06:26:53.488Z,16.50
2023-02-08T06:29:21.100Z,15.53
2023-02-08T06:31:48.816Z,17.50
2023-02-08T06:34:16.357Z,18.23
2023-02-08T06:36:45.669Z,14.47
2023-02-08T06:39:13.350Z,16.73
2023-02-08T06:41:43.713Z,18.10
2023-02-08T06:44:13.789Z,15.80
2023-02-08T06:46:41.231Z,15.80
2023-02-08T06:49:08.692Z,16.10
2023-02-08T06:51:36.184Z,17.77
2023-02-08T06:54:03.937Z,17.30
2023-02-08T06:56:31.580Z,17.13
2023-02-08T06:59:00.551Z,20.40
2023-02-08T07:01:28.286Z,16.20
2023-02-08T07:03:55.872Z,16.07
2023-02-08T07:06:23.476Z,18.10
2023-02-08T07:08:51.048Z,19.53
2023-02-08T07:11:20.686Z,16.80
2023-02-08T07:13:49.712Z,16.53
2023-02-08T07:16:19.670Z,17.70
2023-02-08T07:18:47.655Z,17.80
2023-02-08T07:21:15.298Z,16.30
2023-02-08T07:23:42.992Z,21.00
2023-02-08T07:26:12.557Z,16.30
2023-02-08T07:28:40.086Z,17.17
2023-02-08T07:31:08.110Z,16.60
2023-02-08T07:33:37.056Z,16.90
2023-02-08T07:36:05.342Z,15.17
2023-02-08T07:38:33.657Z,17.67
2023-02-08T07:41:02.551Z,19.77
2023-02-08T07:43:30.167Z,19.00
2023-02-08T07:46:00.562Z,17.17
2023-02-08T07:48:28.373Z,19.70
2023-02-08T07:50:57.149Z,19.30
2023-02-08T07:53:24.710Z,18.47
2023-02-08T07:55:52.179Z,19.00
2023-02-08T07:58:19.638Z,21.00
2023-02-08T08:00:47.068Z,20.97
2023-02-08T08:03:14.508Z,19.10
2023-02-08T08:05:42.667Z,20.10
2023-02-08T08:08:12.719Z,21.93
2023-02-08T08:10:40.840Z,18.30
2023-02-08T08:13:08.486Z,17.40
2023-02-08T08:15:35.968Z,17.43
2023-02-08T08:18:03.468Z,18.50
2023-02-08T08:20:30.917Z,16.40
2023-02-08T08:22:58.347Z,16.83
2023-02-08T08:25:28.110Z,17.40
2023-02-08T08:27:55.626Z,18.63
2023-02-08T08:30:23.687Z,16.90
2023-02-08T08:32:51.182Z,18.50
2023-02-08T08:35:19.094Z,15.37
2023-02-08T08:37:46.675Z,18.47
2023-02-08T08:40:14.113Z,17.47
2023-02-08T08:42:42.952Z,17.57
2023-02-08T08:45:11.519Z,16.13
2023-02-08T08:47:39.289Z,19.23
2023-02-08T08:50:07.528Z,16.90
2023-02-08T08:52:34.953Z,15.57
2023-02-08T08:55:02.492Z,15.00
2023-02-08T08:57:29.988Z,17.57
2023-02-08T08:59:58.758Z,15.80
2023-02-08T09:02:26.324Z,17.93
2023-02-08T09:04:53.794Z,18.70
2023-02-08T09:07:21.318Z,14.37
2023-02-08T09:09:48.791Z,15.07
2023-02-08T09:12:16.484Z,19.80
2023-02-08T09:14:44.832Z,17.17
2023-02-08T09:17:13.626Z,16.80
2023-02-08T09:19:42.435Z,17.53
2023-02-08T09:22:09.923Z,17.90
2023-02-08T09:24:37.411Z,13.17
2023-02-08T09:27:05.220Z,17.60
2023-02-08T09:29:33.782Z,19.60
2023-02-08T09:32:01.395Z,16.63
2023-02-08T09:34:30.277Z,17.50
2023-02-08T09:36:57.744Z,15.87
2023-02-08T09:39:26.786Z,15.63
2023-02-08T09:42:17.975Z,17.73
2023-02-08T09:44:56.947Z,16.80
2023-02-08T09:47:30.397Z,18.27
2023-02-08T09:50:04.264Z,17.93
2023-02-08T09:52:38.418Z,16.00
2023-02-08T09:55:22.241Z,14.20
2023-02-08T09:57:54.194Z,14.87
2023-02-08T10:00:28.811Z,14.70
2023-02-08T10:03:00.717Z,16.00
2023-02-08T10:05:31.333Z,17.20
2023-02-08T10:08:00.667Z,17.23
2023-02-08T10:10:38.551Z,15.70
2023-02-08T10:13:19.290Z,15.23
2023-02-08T10:15:54.313Z,15.00
2023-02-08T10:18:34.127Z,14.93
2023-02-08T10:21:15.636Z,16.63
2023-02-08T10:24:04.479Z,16.53
2023-02-08T10:26:38.223Z,14.60
2023-02-08T10:29:21.139Z,16.27
2023-02-08T10:32:06.184Z,15.43
2023-02-08T10:34:44.475Z,14.70
2023-02-08T10:37:17.863Z,13.37
2023-02-08T10:39:46.425Z,16.63
2023-02-08T10:42:16.173Z,15.47
2023-02-08T10:44:55.032Z,13.97
2023-02-08T10:47:38.255Z,13.47
2023-02-08T10:50:13.718Z,14.63
2023-02-08T10:52:42.930Z,13.77
2023-02-08T10:55:14.864Z,11.43
2023-02-08T10:57:43.484Z,13.70
2023-02-08T11:00:19.011Z,12.80
2023-02-08T11:02:49.128Z,12.07
2023-02-08T11:05:23.281Z,13.20
2023-02-08T11:08:05.919Z,11.50
2023-02-08T11:10:34.067Z,13.37
2023-02-08T11:13:05.589Z,22.00
2023-02-08T11:15:40.971Z,13.73
2023-02-08T11:18:20.486Z,11.87
2023-02-08T11:20:50.402Z,12.20
2023-02-08T11:23:26.767Z,11.07
2023-02-08T11:25:55.210Z,10.80
2023-02-08T11:28:26.066Z,11.50
2023-02-08T11:31:01.800Z,12.40
2023-02-08T11:33:30.824Z,12.00
2023-02-08T11:36:06.034Z,12.73
2023-02-08T11:38:37.504Z,14.43
2023-02-08T11:41:15.586Z,12.00
2023-02-08T11:43:43.726Z,11.90
2023-02-08T11:46:11.906Z,13.73
2023-02-08T11:48:44.555Z,10.43
2023-02-08T11:51:16.091Z,13.00
2023-02-08T11:53:49.596Z,12.07
2023-02-08T11:56:20.169Z,11.07
2023-02-08T11:59:00.085Z,11.43
2023-02-08T12:01:29.838Z,11.73
2023-02-08T12:04:00.130Z,11.20
2023-02-08T12:06:47.714Z,11.53
2023-02-08T12:09:29.075Z,11.90
2023-02-08T12:12:06.565Z,12.00
2023-02-08T12:14:48.163Z,11.10
2023-02-08T12:17:30.109Z,13.70
2023-02-08T12:20:15.776Z,10.83
2023-02-08T12:22:55.372Z,30.80
2023-02-08T12:25:31.546Z,11.17
2023-02-08T12:28:07.115Z,8.83
2023-02-08T12:30:37.508Z,10.50
2023-02-08T12:33:25.043Z,9.50
2023-02-08T12:36:09.234Z,10.83
2023-02-08T12:39:19.456Z,10.33
2023-02-08T12:42:17.312Z,12.77
2023-02-08T12:45:03.568Z,10.20
2023-02-08T12:47:58.221Z,11.00
2023-02-08T12:50:39.952Z,8.10
2023-02-08T12:53:21.445Z,8.40
2023-02-08T12:55:52.111Z,7.53
2023-02-08T12:58:29.913Z,8.70
2023-02-08T13:01:01.217Z,8.60
2023-02-08T13:03:39.300Z,8.07
2023-02-08T13:06:08.932Z,7.80
2023-02-08T13:08:42.051Z,9.57
2023-02-08T13:11:20.201Z,7.30
2023-02-08T13:13:58.251Z,8.50
2023-02-08T13:16:29.315Z,7.53
2023-02-08T13:19:12.458Z,15.83
2023-02-08T13:21:43.670Z,9.80
2023-02-08T13:24:27.319Z,9.87
2023-02-08T13:26:54.814Z,7.40
2023-02-08T13:29:27.870Z,7.93
2023-02-08T13:32:00.419Z,7.77
2023-02-08T13:34:34.354Z,7.03
2023-02-08T13:37:08.812Z,7.63
2023-02-08T13:39:42.912Z,6.53
2023-02-08T13:42:22.172Z,7.30
2023-02-08T13:44:54.997Z,7.30
2023-02-08T13:47:25.639Z,6.27
2023-02-08T13:49:57.262Z,7.43
2023-02-08T13:52:51.674Z,6.00
2023-02-08T13:55:42.974Z,6.63
2023-02-08T13:58:39.365Z,6.10
2023-02-08T14:01:21.430Z,6.67
2023-02-08T14:04:17.728Z,8.60
2023-02-08T14:06:50.962Z,5.70
2023-02-08T14:09:25.047Z,7.40
2023-02-08T14:11:57.182Z,5.20
2023-02-08T14:14:27.955Z,7.20
2023-02-08T14:17:19.622Z,6.07
2023-02-08T14:19:58.396Z,5.60
2023-02-08T14:22:28.471Z,6.43
2023-02-08T14:25:08.780Z,7.23
2023-02-08T14:27:40.504Z,6.40
2023-02-08T14:30:21.372Z,7.67
2023-02-08T14:32:53.542Z,6.03
2023-02-08T14:35:24.644Z,7.57
2023-02-08T14:38:30.853Z,6.60
2023-02-08T14:41:00.581Z,8.00
2023-02-08T14:43:31.948Z,5.23
2023-02-08T14:46:43.204Z,6.67
2023-02-08T14:49:14.345Z,11.23
2023-02-08T14:51:46.036Z,10.73
2023-02-08T14:54:22.213Z,8.13
2023-02-08T14:56:58.275Z,8.60
2023-02-08T14:59:28.352Z,6.10
2023-02-08T15:01:59.862Z,7.50
2023-02-08T15:04:29.148Z,8.30
2023-02-08T15:07:20.030Z,8.47
2023-02-08T15:09:47.769Z,9.73
2023-02-08T15:12:23.065Z,11.17
2023-02-08T15:14:52.461Z,10.43
2023-02-08T15:17:33.430Z,11.13
2023-02-08T15:20:06.586Z,10.40
2023-02-08T15:22:37.298Z,9.70
2023-02-08T15:25:22.251Z,9.10
2023-02-08T15:27:51.304Z,8.87
2023-02-08T15:30:28.209Z,11.07
2023-02-08T15:32:56.515Z,11.00
2023-02-08T15:35:27.272Z,11.30
2023-02-08T15:37:56.684Z,8.63
2023-02-08T15:40:29.094Z,12.20
2023-02-08T15:43:04.928Z,9.77
2023-02-08T15:45:32.581Z,10.70
2023-02-08T15:48:00.991Z,10.37
2023-02-08T15:50:33.205Z,12.37
2023-02-08T15:53:04.142Z,10.97
2023-02-08T15:55:34.819Z,12.10
2023-02-08T15:58:07.037Z,13.30
2023-02-08T16:00:37.774Z,11.67
2023-02-08T16:03:08.603Z,11.70
2023-02-08T16:05:38.918Z,10.80
2023-02-08T16:08:07.491Z,10.80
2023-02-08T16:10:40.117Z,10.33
2023-02-08T16:13:15.953Z,9.87
2023-02-08T16:15:46.003Z,7.80
2023-02-08T16:18:34.395Z,9.43
2023-02-08T16:21:05.277Z,9.70
2023-02-08T16:23:34.462Z,8.67
2023-02-08T16:26:14.299Z,11.03
2023-02-08T16:28:41.802Z,9.60
2023-02-08T16:31:09.694Z,9.93
2023-02-08T16:33:39.441Z,9.13
2023-02-08T16:36:08.430Z,9.57
2023-02-08T16:38:36.104Z,9.90
2023-02-08T16:41:13.006Z,9.30
2023-02-08T16:43:43.754Z,9.70
2023-02-08T16:46:25.097Z,10.97
2023-02-08T16:48:54.635Z,11.07
2023-02-08T16:51:25.595Z,10.53
2023-02-08T16:53:56.176Z,12.07
2023-02-08T16:56:24.557Z,12.33
2023-02-08T16:58:52.195Z,11.90
2023-02-08T17:01:22.953Z,13.20
2023-02-08T17:03:52.812Z,12.17
2023-02-08T17:06:30.319Z,10.50
2023-02-08T17:08:58.109Z,12.10
2023-02-08T17:11:26.110Z,12.73
2023-02-08T17:13:53.821Z,12.03
2023-02-08T17:16:23.374Z,12.67
2023-02-08T17:18:51.461Z,12.53
2023-02-08T17:21:19.754Z,14.00
2023-02-08T17:23:48.554Z,13.87
2023-02-08T17:26:19.007Z,12.97
2023-02-08T17:28:46.564Z,13.77
2023-02-08T17:31:15.173Z,15.53
2023-02-08T17:33:43.270Z,14.53
2023-02-08T17:36:12.995Z,13.40
2023-02-08T17:38:41.878Z,11.93
2023-02-08T17:41:15.229Z,15.00
2023-02-08T17:43:42.854Z,13.63
2023-02-08T17:46:11.517Z,16.57
2023-02-08T17:48:39.078Z,14.83
2023-02-08T17:51:10.438Z,16.17
2023-02-08T17:53:40.674Z,14.50
2023-02-08T17:56:09.577Z,16.40
2023-02-08T17:58:38.484Z,17.80
2023-02-08T18:01:07.392Z,16.67
2023-02-08T18:03:35.445Z,17.07
2023-02-08T18:06:03.545Z,16.37
2023-02-08T18:08:31.002Z,16.00
2023-02-08T18:11:04.234Z,16.33
2023-02-08T18:13:31.649Z,16.53
2023-02-08T18:16:07.581Z,19.20
2023-02-08T18:18:35.158Z,16.60
2023-02-08T18:21:02.634Z,17.00
2023-02-08T18:23:30.074Z,18.23
2023-02-08T18:26:04.757Z,17.83
2023-02-08T18:28:33.233Z,19.93
2023-02-08T18:31:07.657Z,19.30
2023-02-08T18:33:35.879Z,15.83
2023-02-08T18:36:06.039Z,20.03
2023-02-08T18:38:34.144Z,18.83
2023-02-08T18:41:01.763Z,17.00
2023-02-08T18:43:30.248Z,20.37
2023-02-08T18:46:10.096Z,16.13
2023-02-08T18:48:37.866Z,20.20
2023-02-08T18:51:06.952Z,20.07
2023-02-08T18:53:37.074Z,19.73
2023-02-08T18:56:07.255Z,18.70
2023-02-08T18:58:35.093Z,18.70
2023-02-08T19:01:08.706Z,20.70
2023-02-08T19:03:36.615Z,19.53
2023-02-08T19:06:06.140Z,19.80
2023-02-08T19:08:36.392Z,21.17
2023-02-08T19:11:04.790Z,21.20
2023-02-08T19:13:34.311Z,20.47
2023-02-08T19:16:01.796Z,20.47
2023-02-08T19:18:30.622Z,21.93
2023-02-08T19:21:03.864Z,21.50
2023-02-08T19:23:31.302Z,21.80
2023-02-08T19:26:02.513Z,20.73
2023-02-08T19:28:33.545Z,22.17
2023-02-08T19:31:06.063Z,22.13
2023-02-08T19:33:34.993Z,20.80
2023-02-08T19:36:08.143Z,21.83
2023-02-08T19:38:35.770Z,21.90
2023-02-08T19:41:03.634Z,21.97
2023-02-08T19:43:31.289Z,21.50
2023-02-08T19:45:58.915Z,20.87
2023-02-08T19:48:27.182Z,22.37
2023-02-08T19:50:57.299Z,22.20
2023-02-08T19:53:25.776Z,22.80
2023-02-08T19:55:57.840Z,22.70
2023-02-08T19:58:26.111Z,23.07
2023-02-08T20:00:53.889Z,24.17
2023-02-08T20:03:23.605Z,21.50
2023-02-08T20:05:53.552Z,25.27
2023-02-08T20:08:26.333Z,19.33
2023-02-08T20:10:55.826Z,20.07
2023-02-08T20:13:24.140Z,23.50
2023-02-08T20:15:51.798Z,23.20
2023-02-08T20:18:21.915Z,19.97
2023-02-08T20:21:00.590Z,20.57
2023-02-08T20:23:30.646Z,20.27
2023-02-08T20:26:10.784Z,22.90
2023-02-08T20:28:41.515Z,23.00
2023-02-08T20:31:10.269Z,22.67
2023-02-08T20:33:38.328Z,26.70
2023-02-08T20:36:08.287Z,25.50
2023-02-08T20:38:38.223Z,21.67
2023-02-08T20:41:07.288Z,22.43
2023-02-08T20:43:35.161Z,27.60
2023-02-08T20:46:06.400Z,26.97
2023-02-08T20:48:34.170Z,24.60
2023-02-08T20:51:06.254Z,22.73
2023-02-08T20:53:34.718Z,25.17
2023-02-08T20:56:07.156Z,23.57
2023-02-08T20:58:35.044Z,24.43
2023-02-08T21:01:02.836Z,22.40
2023-02-08T21:03:30.402Z,23.90
2023-02-08T21:05:57.891Z,21.63
2023-02-08T21:08:25.390Z,21.20
2023-02-08T21:10:52.866Z,18.97
2023-02-08T21:13:21.866Z,22.93
2023-02-08T21:15:49.919Z,22.70
2023-02-08T21:18:17.434Z,19.10
2023-02-08T21:20:45.596Z,23.10
2023-02-08T21:23:13.544Z,21.23
2023-02-08T21:25:44.611Z,19.87
2023-02-08T21:28:12.848Z,19.50
2023-02-08T21:30:42.476Z,19.80
2023-02-08T21:33:10.102Z,18.90
2023-02-08T21:35:38.745Z,18.83
2023-02-08T21:38:06.742Z,21.63
2023-02-08T21:40:34.952Z,20.23
2023-02-08T21:43:02.420Z,19.43
2023-02-08T21:45:29.989Z,18.57
2023-02-08T21:47:59.855Z,20.43
2023-02-08T21:50:45.790Z,20.10
2023-02-08T21:53:32.613Z,18.33
2023-02-08T21:56:00.354Z,19.40
2023-02-08T21:58:28.726Z,17.43
2023-02-08T22:00:56.492Z,19.47
2023-02-08T22:03:29.816Z,19.77
2023-02-08T22:06:15.444Z,18.30
2023-02-08T22:08:43.100Z,18.10
2023-02-08T22:11:12.420Z,18.50
2023-02-08T22:13:40.089Z,18.17
2023-02-08T22:16:08.858Z,18.77
2023-02-08T22:18:41.166Z,18.90
2023-02-08T22:21:09.106Z,20.63
2023-02-08T22:23:36.580Z,18.90
2023-02-08T22:26:08.237Z,21.30
2023-02-08T22:28:36.222Z,17.67
2023-02-08T22:31:04.835Z,20.00
2023-02-08T22:33:32.408Z,16.90
2023-02-08T22:36:01.326Z,19.63
2023-02-08T22:38:28.846Z,16.97
2023-02-08T22:40:56.303Z,17.43
2023-02-08T22:43:23.798Z,18.00
2023-02-08T22:45:58.338Z,15.73
2023-02-08T22:48:26.401Z,16.93
2023-02-08T22:50:54.344Z,18.20
2023-02-08T22:53:23.270Z,17.50
2023-02-08T22:55:51.328Z,18.27
2023-02-08T22:58:19.196Z,18.87
2023-02-08T23:00:48.269Z,18.53
2023-02-08T23:03:16.307Z,16.40
2023-02-08T23:05:45.311Z,16.07
2023-02-08T23:08:14.672Z,16.63
2023-02-08T23:10:44.250Z,19.07
2023-02-08T23:13:12.914Z,17.97
2023-02-08T23:15:42.988Z,17.37
2023-02-08T23:18:11.102Z,17.63
2023-02-08T23:20:39.211Z,15.97
2023-02-08T23:23:06.922Z,18.27
2023-02-08T23:25:34.454Z,15.90
2023-02-08T23:28:03.351Z,15.10
2023-02-08T23:30:31.051Z,14.50
2023-02-08T23:32:58.580Z,14.90
2023-02-08T23:35:26.414Z,16.13
2023-02-08T23:37:53.932Z,15.17
2023-02-08T23:40:21.683Z,16.60
2023-02-08T23:42:49.165Z,15.47
2023-02-08T23:45:18.164Z,15.17
2023-02-08T23:47:45.666Z,13.53
2023-02-08T23:50:13.186Z,15.30
2023-02-08T23:52:40.630Z,14.10
2023-02-08T23:55:10.088Z,12.43
2023-02-08T23:57:38.519Z,14.40
